createdAt,value
2022-09-21T00:01:06.292Z,1.73
2022-09-21T00:03:39.608Z,1.60
2022-09-21T00:06:11.475Z,1.55
2022-09-21T00:08:44.668Z,1.40
2022-09-21T00:11:16.203Z,1.30
2022-09-21T00:13:43.219Z,1.92
2022-09-21T00:16:16.639Z,1.73
2022-09-21T00:18:49.719Z,1.30
2022-09-21T00:21:16.853Z,1.98
2022-09-21T00:23:50.715Z,1.40
2022-09-21T00:26:25.071Z,1.38
2022-09-21T00:29:03.664Z,1.70
2022-09-21T00:31:30.976Z,1.63
2022-09-21T00:33:58.959Z,1.60
2022-09-21T00:36:32.636Z,1.30
2022-09-21T00:39:00.586Z,1.70
2022-09-21T00:41:35.664Z,1.50
2022-09-21T00:44:39.654Z,1.50
2022-09-21T00:47:18.664Z,1.40
2022-09-21T00:49:48.711Z,1.30
2022-09-21T00:52:22.647Z,1.50
2022-09-21T00:54:54.963Z,1.45
2022-09-21T00:57:29.626Z,1.70
2022-09-21T00:59:57.814Z,1.33
2022-09-21T01:02:31.671Z,1.83
2022-09-21T01:05:04.687Z,1.88
2022-09-21T01:07:39.657Z,1.77
2022-09-21T01:10:14.956Z,1.40
2022-09-21T01:13:39.663Z,1.35
2022-09-21T01:16:21.147Z,1.58
2022-09-21T01:19:11.651Z,1.60
2022-09-21T01:22:08.099Z,1.80
2022-09-21T01:24:57.645Z,1.88
2022-09-21T01:27:42.354Z,1.98
2022-09-21T01:30:23.646Z,1.60
2022-09-21T01:33:04.408Z,1.75
2022-09-21T01:36:04.667Z,1.65
2022-09-21T01:38:35.744Z,1.67
2022-09-21T01:41:10.691Z,1.48
2022-09-21T01:43:42.081Z,1.85
2022-09-21T01:46:23.707Z,1.20
2022-09-21T01:48:56.481Z,1.63
2022-09-21T01:51:29.681Z,1.77
2022-09-21T01:54:01.534Z,1.50
2022-09-21T01:56:39.731Z,1.50
2022-09-21T01:59:21.694Z,1.17
2022-09-21T02:02:21.671Z,1.70
2022-09-21T02:04:48.560Z,1.60
2022-09-21T02:07:23.711Z,1.75
2022-09-21T02:09:50.612Z,1.77
2022-09-21T02:12:23.709Z,1.58
2022-09-21T02:14:50.641Z,1.77
2022-09-21T02:17:38.659Z,1.67
2022-09-21T02:20:24.118Z,1.73
2022-09-21T02:23:06.729Z,1.63
2022-09-21T02:26:06.699Z,1.52
2022-09-21T02:28:50.779Z,1.50
2022-09-21T02:31:49.697Z,1.50
2022-09-21T02:34:39.459Z,1.83
2022-09-21T02:37:20.664Z,1.70
2022-09-21T02:40:16.758Z,1.63
2022-09-21T02:42:49.704Z,1.50
2022-09-21T02:45:23.036Z,1.80
2022-09-21T02:48:12.734Z,1.40
2022-09-21T02:50:53.698Z,1.63
2022-09-21T02:53:26.613Z,1.67
2022-09-21T02:56:01.718Z,1.50
2022-09-21T02:58:34.733Z,1.48
2022-09-21T03:01:07.769Z,1.55
2022-09-21T03:03:40.695Z,1.58
2022-09-21T03:06:14.749Z,1.50
2022-09-21T03:08:47.704Z,1.90
2022-09-21T03:11:18.864Z,1.77
2022-09-21T03:13:52.747Z,1.60
2022-09-21T03:16:25.754Z,1.58
2022-09-21T03:18:58.753Z,1.80
2022-09-21T03:21:25.653Z,1.90
2022-09-21T03:23:52.602Z,2.13
2022-09-21T03:26:25.721Z,1.77
2022-09-21T03:28:52.750Z,1.45
2022-09-21T03:31:19.710Z,1.95
2022-09-21T03:33:52.770Z,1.92
2022-09-21T03:36:19.708Z,1.70
2022-09-21T03:38:52.751Z,1.30
2022-09-21T03:41:19.624Z,2.00
2022-09-21T03:43:52.738Z,1.70
2022-09-21T03:46:19.654Z,1.50
2022-09-21T03:48:54.734Z,1.60
2022-09-21T03:51:21.609Z,1.73
2022-09-21T03:53:54.724Z,1.90
2022-09-21T03:56:27.743Z,1.92
2022-09-21T03:58:54.649Z,1.67
2022-09-21T04:01:27.779Z,1.85
2022-09-21T04:04:00.760Z,2.33
2022-09-21T04:06:27.667Z,1.88
2022-09-21T04:09:00.775Z,1.85
2022-09-21T04:11:27.718Z,1.65
2022-09-21T04:14:01.814Z,1.65
2022-09-21T04:16:28.746Z,1.50
2022-09-21T04:18:55.627Z,1.73
2022-09-21T04:21:28.771Z,1.90
2022-09-21T04:23:55.793Z,1.80
2022-09-21T04:26:38.779Z,1.63
2022-09-21T04:29:05.725Z,1.60
2022-09-21T04:31:39.794Z,1.73
2022-09-21T04:34:06.697Z,2.00
2022-09-21T04:36:36.631Z,1.80
2022-09-21T04:39:11.771Z,1.70
2022-09-21T04:41:38.646Z,1.75
2022-09-21T04:44:11.788Z,1.80
2022-09-21T04:46:38.621Z,1.92
2022-09-21T04:49:11.774Z,2.03
2022-09-21T04:51:38.684Z,1.88
2022-09-21T04:54:11.762Z,1.40
2022-09-21T04:56:38.642Z,1.80
2022-09-21T04:59:05.655Z,1.67
2022-09-21T05:01:38.845Z,1.45
2022-09-21T05:04:05.759Z,1.67
2022-09-21T05:06:39.775Z,1.75
2022-09-21T05:09:12.812Z,1.65
2022-09-21T05:11:39.702Z,1.60
2022-09-21T05:14:12.777Z,1.80
2022-09-21T05:16:45.814Z,1.70
2022-09-21T05:19:18.797Z,1.80
2022-09-21T05:21:45.688Z,1.65
2022-09-21T05:24:18.784Z,1.35
2022-09-21T05:26:45.631Z,1.90
2022-09-21T05:29:12.784Z,1.70
2022-09-21T05:32:27.807Z,2.05
2022-09-21T05:35:03.616Z,2.03
2022-09-21T05:38:03.804Z,2.00
2022-09-21T05:40:31.302Z,1.80
2022-09-21T05:43:04.809Z,1.70
2022-09-21T05:45:32.365Z,1.98
2022-09-21T05:48:46.800Z,2.15
2022-09-21T05:51:36.214Z,1.85
2022-09-21T05:54:25.842Z,1.80
2022-09-21T05:57:33.862Z,2.00
2022-09-21T06:00:24.827Z,1.85
2022-09-21T06:03:13.283Z,1.70
2022-09-21T06:05:49.814Z,1.70
2022-09-21T06:08:16.654Z,1.83
2022-09-21T06:10:43.508Z,2.25
2022-09-21T06:13:16.858Z,2.33
2022-09-21T06:15:43.772Z,2.15
2022-09-21T06:18:18.245Z,2.20
2022-09-21T06:20:52.835Z,2.00
2022-09-21T06:23:19.712Z,1.52
2022-09-21T06:26:00.846Z,1.60
2022-09-21T06:28:27.809Z,1.85
2022-09-21T06:31:01.869Z,2.03
2022-09-21T06:33:28.789Z,1.67
2022-09-21T06:36:06.850Z,2.47
2022-09-21T06:38:33.664Z,2.50
2022-09-21T06:41:10.824Z,2.17
2022-09-21T06:43:43.822Z,2.08
2022-09-21T06:46:10.729Z,2.30
2022-09-21T06:48:43.859Z,2.63
2022-09-21T06:51:10.772Z,3.00
2022-09-21T06:53:43.861Z,2.60
2022-09-21T06:56:16.814Z,2.47
2022-09-21T06:58:49.872Z,3.00
2022-09-21T07:01:16.846Z,2.70
2022-09-21T07:03:50.887Z,2.63
2022-09-21T07:06:18.069Z,2.85
2022-09-21T07:11:38.847Z,2.85
2022-09-21T07:14:11.904Z,2.60
2022-09-21T07:16:38.763Z,2.15
2022-09-21T07:19:12.251Z,2.17
2022-09-21T07:21:39.326Z,2.20
2022-09-21T07:24:11.680Z,2.00
2022-09-21T07:26:45.910Z,2.10
2022-09-21T07:29:12.764Z,2.40
2022-09-21T07:31:45.954Z,2.42
2022-09-21T07:34:13.089Z,2.00
2022-09-21T07:36:46.849Z,2.40
2022-09-21T07:39:13.782Z,2.05
2022-09-21T07:41:46.852Z,2.88
2022-09-21T07:44:13.707Z,2.70
2022-09-21T07:46:45.803Z,1.98
2022-09-21T07:49:21.867Z,2.97
2022-09-21T07:51:48.758Z,2.30
2022-09-21T07:54:21.872Z,2.38
2022-09-21T07:56:55.174Z,2.22
2022-09-21T07:59:28.923Z,1.80
2022-09-21T08:01:55.775Z,1.80
2022-09-21T08:04:28.900Z,1.77
2022-09-21T08:06:55.753Z,1.85
2022-09-21T08:09:28.924Z,1.67
2022-09-21T08:12:01.911Z,1.90
2022-09-21T08:14:34.914Z,1.60
2022-09-21T08:17:08.985Z,2.35
2022-09-21T08:19:35.833Z,2.47
2022-09-21T08:22:02.794Z,2.63
2022-09-21T08:24:35.924Z,2.97
2022-09-21T08:27:08.910Z,1.95
2022-09-21T08:29:41.901Z,2.00
2022-09-21T08:32:08.767Z,1.67
2022-09-21T08:34:41.888Z,1.73
2022-09-21T08:37:15.949Z,2.05
2022-09-21T08:39:48.958Z,2.15
2022-09-21T08:42:27.943Z,2.35
2022-09-21T08:45:01.344Z,2.22
2022-09-21T08:48:04.909Z,2.72
2022-09-21T08:50:48.944Z,2.13
2022-09-21T08:53:26.447Z,2.28
2022-09-21T08:56:03.941Z,2.20
2022-09-21T08:58:32.094Z,2.03
2022-09-21T09:01:26.955Z,2.00
2022-09-21T09:04:27.961Z,2.20
2022-09-21T09:07:24.297Z,2.00
2022-09-21T09:10:19.922Z,1.95
2022-09-21T09:12:58.664Z,1.80
2022-09-21T09:15:59.937Z,2.13
2022-09-21T09:18:57.482Z,2.40
2022-09-21T09:21:41.951Z,1.88
2022-09-21T09:24:50.143Z,2.03
2022-09-21T09:27:46.945Z,2.25
2022-09-21T09:30:25.978Z,2.15
2022-09-21T09:33:06.966Z,2.72
2022-09-21T09:35:55.634Z,2.40
2022-09-21T09:38:50.948Z,2.53
2022-09-21T09:42:02.842Z,2.28
2022-09-21T09:45:06.999Z,3.08
2022-09-21T09:47:57.067Z,2.20
2022-09-21T09:50:38.988Z,1.90
2022-09-21T09:53:17.689Z,2.00
2022-09-21T09:55:56.978Z,2.10
2022-09-21T09:58:52.234Z,1.80
2022-09-21T10:01:51.035Z,1.80
2022-09-21T10:04:25.036Z,1.75
2022-09-21T10:06:58.984Z,1.52
2022-09-21T10:09:33.056Z,1.45
2022-09-21T10:12:31.122Z,1.48
2022-09-21T10:15:04.988Z,1.33
2022-09-21T10:17:31.870Z,1.60
2022-09-21T10:20:12.964Z,1.40
2022-09-21T10:22:39.826Z,1.23
2022-09-21T10:25:20.986Z,1.40
2022-09-21T10:27:49.893Z,1.30
2022-09-21T10:30:44.040Z,1.25
2022-09-21T10:33:21.523Z,1.17
2022-09-21T10:35:58.982Z,1.38
2022-09-21T10:38:26.543Z,1.60
2022-09-21T10:40:59.987Z,1.85
2022-09-21T10:43:38.677Z,1.40
2022-09-21T10:46:15.026Z,2.00
2022-09-21T10:48:44.264Z,1.50
2022-09-21T10:51:36.063Z,1.50
2022-09-21T10:54:09.030Z,1.60
2022-09-21T10:56:41.991Z,1.25
2022-09-21T10:59:20.563Z,1.15
2022-09-21T11:01:57.106Z,1.17
2022-09-21T11:04:44.994Z,1.20
2022-09-21T11:07:35.003Z,1.00
2022-09-21T11:10:34.016Z,1.00
2022-09-21T11:13:44.068Z,1.00
2022-09-21T11:16:13.184Z,1.10
2022-09-21T11:19:15.048Z,1.20
2022-09-21T11:22:34.592Z,1.10
2022-09-21T11:25:32.014Z,1.10
2022-09-21T11:28:13.588Z,1.35
2022-09-21T11:31:48.034Z,1.10
2022-09-21T11:35:21.062Z,0.93
2022-09-21T11:38:02.304Z,1.00
2022-09-21T11:41:03.019Z,1.05
2022-09-21T11:43:47.839Z,1.25
2022-09-21T11:46:45.028Z,1.15
2022-09-21T11:50:29.716Z,0.90
2022-09-21T11:53:28.029Z,0.80
2022-09-21T11:56:43.047Z,0.90
2022-09-21T11:59:49.086Z,1.00
2022-09-21T12:05:42.046Z,1.00
2022-09-21T12:09:30.046Z,1.15
2022-09-21T12:12:38.034Z,0.93
2022-09-21T12:15:24.317Z,1.00
2022-09-21T12:18:05.074Z,0.90
2022-09-21T12:20:47.851Z,0.85
2022-09-21T12:23:43.038Z,0.95
2022-09-21T12:26:11.957Z,1.15
2022-09-21T12:29:12.056Z,1.10
2022-09-21T12:32:05.078Z,1.10
2022-09-21T12:34:42.806Z,1.52
2022-09-21T12:37:30.061Z,1.10
2022-09-21T12:40:28.361Z,1.10
2022-09-21T12:43:08.444Z,0.98
2022-09-21T12:46:07.327Z,1.10
2022-09-21T12:48:43.064Z,0.90
2022-09-21T12:51:42.810Z,1.17
2022-09-21T12:54:35.298Z,1.33
2022-09-21T12:57:49.609Z,1.08
2022-09-21T13:00:31.081Z,1.17
2022-09-21T13:03:28.102Z,1.00
2022-09-21T13:06:37.107Z,1.20
2022-09-21T13:09:06.153Z,1.02
2022-09-21T13:11:42.102Z,1.55
2022-09-21T13:14:18.086Z,1.10
2022-09-21T13:16:44.979Z,1.05
2022-09-21T13:19:27.076Z,1.20
2022-09-21T13:22:22.142Z,1.00
2022-09-21T13:25:36.076Z,1.20
2022-09-21T13:28:14.752Z,1.38
2022-09-21T13:31:39.918Z,1.27
2022-09-21T13:34:29.108Z,1.10
2022-09-21T13:37:25.421Z,1.40
2022-09-21T13:40:10.957Z,1.27
2022-09-21T13:42:38.961Z,1.33
2022-09-21T13:45:18.106Z,1.10
2022-09-21T13:47:46.673Z,1.20
2022-09-21T13:50:36.141Z,1.20
2022-09-21T13:53:35.121Z,1.30
2022-09-21T13:56:25.127Z,1.10
2022-09-21T13:58:53.394Z,1.45
2022-09-21T14:01:47.216Z,1.30
2022-09-21T14:04:33.469Z,1.00
2022-09-21T14:07:12.106Z,1.60
2022-09-21T14:09:59.899Z,1.20
2022-09-21T14:12:34.148Z,1.20
2022-09-21T14:15:22.471Z,0.90
2022-09-21T14:18:19.133Z,1.30
2022-09-21T14:21:18.138Z,1.23
2022-09-21T14:24:07.040Z,1.30
2022-09-21T14:27:09.152Z,0.95
2022-09-21T14:29:53.573Z,1.30
2022-09-21T14:32:30.154Z,1.50
2022-09-21T14:35:20.096Z,1.35
2022-09-21T14:37:59.157Z,1.67
2022-09-21T14:40:30.165Z,1.00
2022-09-21T14:43:05.192Z,1.10
2022-09-21T14:46:08.715Z,1.10
2022-09-21T14:49:03.164Z,1.30
2022-09-21T14:52:20.209Z,1.40
2022-09-21T14:55:34.162Z,1.30
2022-09-21T14:58:45.296Z,1.10
2022-09-21T15:01:34.122Z,1.65
2022-09-21T15:04:50.173Z,1.27
2022-09-21T15:08:16.614Z,1.33
2022-09-21T15:11:33.152Z,1.35
2022-09-21T15:14:33.021Z,1.33
2022-09-21T15:17:06.149Z,1.08
2022-09-21T15:19:43.153Z,1.38
2022-09-21T15:22:24.203Z,1.10
2022-09-21T15:24:59.153Z,1.27
2022-09-21T15:27:37.207Z,1.00
2022-09-21T15:30:14.180Z,1.20
2022-09-21T15:32:42.876Z,1.30
2022-09-21T15:35:26.212Z,1.50
2022-09-21T15:37:53.162Z,1.00
2022-09-21T15:40:41.287Z,1.02
2022-09-21T15:43:14.193Z,1.15
2022-09-21T15:46:00.199Z,1.10
2022-09-21T15:48:45.376Z,1.67
2022-09-21T15:51:15.194Z,3.33
2022-09-21T15:53:55.273Z,5.93
2022-09-21T15:56:26.803Z,3.90
2022-09-21T15:59:09.226Z,2.65
2022-09-21T16:01:40.875Z,2.08
2022-09-21T16:04:14.225Z,1.13
2022-09-21T16:06:44.633Z,1.23
2022-09-21T16:09:52.201Z,1.30
2022-09-21T16:12:44.069Z,1.30
2022-09-21T16:15:33.261Z,1.05
2022-09-21T16:18:02.258Z,1.17
2022-09-21T16:20:50.244Z,1.10
2022-09-21T16:23:22.304Z,1.25
2022-09-21T16:26:06.256Z,0.93
2022-09-21T16:28:46.213Z,1.00
2022-09-21T16:31:34.927Z,1.10
2022-09-21T16:34:37.286Z,1.00
2022-09-21T16:37:21.340Z,1.30
2022-09-21T16:39:55.234Z,0.95
2022-09-21T16:42:29.234Z,1.20
2022-09-21T16:45:02.222Z,0.93
2022-09-21T16:47:29.138Z,1.05
2022-09-21T16:50:06.237Z,1.35
2022-09-21T16:52:40.254Z,1.00
2022-09-21T16:55:08.138Z,1.38
2022-09-21T16:57:41.263Z,1.15
2022-09-21T17:00:12.244Z,1.25
2022-09-21T17:02:45.248Z,0.82
2022-09-21T17:05:18.240Z,0.93
2022-09-21T17:08:02.244Z,1.23
2022-09-21T17:10:32.697Z,0.88
2022-09-21T17:13:06.267Z,0.90
2022-09-21T17:15:40.248Z,0.95
2022-09-21T17:18:07.224Z,1.13
2022-09-21T17:20:49.275Z,1.05
2022-09-21T17:23:16.186Z,2.08
2022-09-21T17:25:49.241Z,1.10
2022-09-21T17:28:32.251Z,1.05
2022-09-21T17:30:59.273Z,1.20
2022-09-21T17:33:32.247Z,1.05
2022-09-21T17:35:59.125Z,1.10
2022-09-21T17:38:32.296Z,1.30
2022-09-21T17:41:27.516Z,1.30
2022-09-21T17:44:17.287Z,1.33
2022-09-21T17:47:08.862Z,1.25
2022-09-21T17:49:42.271Z,1.35
2022-09-21T17:52:18.922Z,1.13
2022-09-21T17:54:52.374Z,1.27
2022-09-21T17:57:47.159Z,1.17
2022-09-21T18:00:27.356Z,1.50
2022-09-21T18:03:01.341Z,1.60
2022-09-21T18:05:36.260Z,1.30
2022-09-21T18:08:03.364Z,1.48
2022-09-21T18:10:30.448Z,1.20
2022-09-21T18:13:48.289Z,1.40
2022-09-21T18:16:55.457Z,1.30
2022-09-21T18:19:46.274Z,1.45
2022-09-21T18:23:00.010Z,1.42
2022-09-21T18:25:43.360Z,1.55
2022-09-21T18:28:47.304Z,1.10
2022-09-21T18:31:43.148Z,1.27
2022-09-21T18:35:03.298Z,1.10
2022-09-21T18:38:30.369Z,1.13
2022-09-21T18:41:33.392Z,1.40
2022-09-21T18:44:25.361Z,1.30
2022-09-21T18:47:48.412Z,1.42
2022-09-21T18:50:41.573Z,1.50
2022-09-21T18:53:54.387Z,1.38
2022-09-21T18:56:32.331Z,1.67
2022-09-21T18:59:06.287Z,1.70
2022-09-21T19:01:34.083Z,2.33
2022-09-21T19:04:08.343Z,1.67
2022-09-21T19:06:47.624Z,1.50
2022-09-21T19:09:54.376Z,1.73
2022-09-21T19:12:45.889Z,1.70
2022-09-21T19:15:59.354Z,1.33
2022-09-21T19:19:16.311Z,1.35
2022-09-21T19:22:16.694Z,1.65
2022-09-21T19:25:10.374Z,1.65
2022-09-21T19:27:48.162Z,1.33
2022-09-21T19:30:23.350Z,1.70
2022-09-21T19:32:56.758Z,1.20
2022-09-21T19:35:34.529Z,1.60
2022-09-21T19:38:02.542Z,1.48
2022-09-21T19:40:40.462Z,1.70
2022-09-21T19:43:31.992Z,1.42
2022-09-21T19:46:48.342Z,1.88
2022-09-21T19:49:18.084Z,1.52
2022-09-21T19:51:55.335Z,1.70
2022-09-21T19:54:24.282Z,1.52
2022-09-21T19:56:58.415Z,1.63
2022-09-21T19:59:25.699Z,1.70
2022-09-21T20:02:05.442Z,2.00
2022-09-21T20:04:54.367Z,1.75
2022-09-21T20:07:52.025Z,1.85
2022-09-21T20:10:37.412Z,2.20
2022-09-21T20:13:19.417Z,1.70
2022-09-21T20:16:40.446Z,1.90
2022-09-21T20:19:27.277Z,2.15
2022-09-21T20:22:25.444Z,1.73
2022-09-21T20:25:08.921Z,1.95
2022-09-21T20:27:53.439Z,2.00
2022-09-21T20:30:23.355Z,2.03
2022-09-21T20:33:06.384Z,1.90
2022-09-21T20:35:33.750Z,1.95
2022-09-21T20:38:07.372Z,2.20
2022-09-21T20:40:34.687Z,2.25
2022-09-21T20:43:08.372Z,2.00
2022-09-21T20:45:41.485Z,2.13
2022-09-21T20:48:15.417Z,2.08
2022-09-21T20:50:54.454Z,1.75
2022-09-21T20:53:21.419Z,1.80
2022-09-21T20:56:02.452Z,1.95
2022-09-21T20:58:39.457Z,1.92
2022-09-21T21:01:06.899Z,2.70
2022-09-21T21:03:40.464Z,2.15
2022-09-21T21:06:14.974Z,2.03
2022-09-21T21:08:48.434Z,2.30
2022-09-21T21:11:21.492Z,1.90
2022-09-21T21:13:48.449Z,1.60
2022-09-21T21:16:15.379Z,2.35
2022-09-21T21:18:48.422Z,2.35
2022-09-21T21:21:15.376Z,2.30
2022-09-21T21:23:48.401Z,2.25
2022-09-21T21:26:15.269Z,2.45
2022-09-21T21:28:48.447Z,2.50
2022-09-21T21:31:20.760Z,2.50
2022-09-21T21:33:48.392Z,2.58
2022-09-21T21:36:21.406Z,2.22
2022-09-21T21:38:54.443Z,2.17
2022-09-21T21:41:21.346Z,2.30
2022-09-21T21:43:54.418Z,2.40
2022-09-21T21:46:27.433Z,2.50
2022-09-21T21:48:54.308Z,2.83
2022-09-21T21:51:27.446Z,2.60
2022-09-21T21:53:54.334Z,3.00
2022-09-21T21:56:27.456Z,2.88
2022-09-21T21:58:54.772Z,2.70
2022-09-21T22:01:27.162Z,2.25
2022-09-21T22:04:05.455Z,2.22
2022-09-21T22:06:40.469Z,2.08
2022-09-21T22:09:10.024Z,2.70
2022-09-21T22:11:37.284Z,2.03
2022-09-21T22:14:11.493Z,2.30
2022-09-21T22:16:45.535Z,2.13
2022-09-21T22:19:12.481Z,2.25
2022-09-21T22:21:53.836Z,2.30
2022-09-21T22:24:21.316Z,2.63
2022-09-21T22:26:54.458Z,2.65
2022-09-21T22:29:21.331Z,2.53
2022-09-21T22:31:49.347Z,2.60
2022-09-21T22:34:23.478Z,2.78
2022-09-21T22:36:50.321Z,3.00
2022-09-21T22:39:23.483Z,3.40
2022-09-21T22:41:50.434Z,3.40
2022-09-21T22:44:23.461Z,2.78
2022-09-21T22:46:56.479Z,2.95
2022-09-21T22:49:23.410Z,3.08
2022-09-21T22:51:50.319Z,2.53
2022-09-21T22:54:23.458Z,3.40
2022-09-21T22:56:56.474Z,3.40
2022-09-21T22:59:23.543Z,3.55
2022-09-21T23:01:50.563Z,3.50
2022-09-21T23:04:24.551Z,3.63
2022-09-21T23:06:51.481Z,3.35
2022-09-21T23:09:26.487Z,3.65
2022-09-21T23:11:53.481Z,3.58
2022-09-21T23:14:27.471Z,3.83
2022-09-21T23:17:00.489Z,3.65
2022-09-21T23:19:27.369Z,4.50
2022-09-21T23:22:00.486Z,3.47
2022-09-21T23:24:33.481Z,3.85
2022-09-21T23:27:00.353Z,3.10
2022-09-21T23:29:33.502Z,3.30
2022-09-21T23:32:00.430Z,3.28
2022-09-21T23:34:33.522Z,3.30
2022-09-21T23:37:06.534Z,2.92
2022-09-21T23:39:33.430Z,3.22
2022-09-21T23:42:00.380Z,3.35
2022-09-21T23:44:40.495Z,3.22
2022-09-21T23:47:07.449Z,3.28
2022-09-21T23:49:40.512Z,3.25
2022-09-21T23:52:07.455Z,3.17
2022-09-21T23:54:40.501Z,3.40
2022-09-21T23:57:13.501Z,3.33
2022-09-21T23:59:40.389Z,3.53
